Time;durP1;ratioP1;P1;durP2;ratioP2;P2;SDS_P1;SDS_P2;PMS_P1;PMS_P2;Temp;Humidity;BMP_temperature;BMP_pressure;BME280_temperature;BME280_humidity;BME280_pressure;Samples;Min_cycle;Max_cycle;Signal;HPM_P1;HPM_P2
2021/04/23 00:02:13;;;;;;;17.38;4.60;;;4.00;99.90;;;;;;5051558;28;20021;-56
2021/04/23 00:04:38;;;;;;;15.43;3.45;;;3.90;99.90;;;;;;5051622;28;20032;-58
2021/04/23 00:07:04;;;;;;;23.38;4.57;;;3.90;99.90;;;;;;5051472;28;20052;-58
2021/04/23 00:09:35;;;;;;;15.15;4.22;;;3.80;99.90;;;;;;5051344;28;20056;-57
2021/04/23 00:12:08;;;;;;;16.33;4.55;;;3.70;99.90;;;;;;5051788;28;20047;-57
2021/04/23 00:14:47;;;;;;;17.35;4.40;;;3.60;99.90;;;;;;5051733;28;20025;-56
2021/04/23 00:17:14;;;;;;;18.40;5.57;;;3.60;99.90;;;;;;5051294;28;20033;-56
2021/04/23 00:19:40;;;;;;;20.13;5.10;;;3.60;99.90;;;;;;5051396;28;20029;-56
2021/04/23 00:22:08;;;;;;;36.53;9.70;;;3.60;99.90;;;;;;5051290;28;20037;-59
2021/04/23 00:24:34;;;;;;;20.65;5.40;;;3.70;99.90;;;;;;5050554;28;20041;-56
2021/04/23 00:27:02;;;;;;;28.58;7.53;;;3.60;99.90;;;;;;5051284;28;20056;-58
2021/04/23 00:29:28;;;;;;;23.30;5.35;;;3.50;99.90;;;;;;5050322;28;20511;-57
2021/04/23 00:34:40;;;;;;;19.92;5.10;;;3.30;99.90;;;;;;5051031;28;20039;-57
2021/04/23 00:37:06;;;;;;;15.38;5.05;;;3.10;99.90;;;;;;5050564;28;20115;-55
2021/04/23 00:39:32;;;;;;;14.23;3.83;;;3.10;99.90;;;;;;5050448;28;20028;-60
2021/04/23 00:41:59;;;;;;;15.63;4.07;;;3.10;99.90;;;;;;5051098;28;20081;-58
2021/04/23 00:44:25;;;;;;;13.43;3.70;;;3.00;99.90;;;;;;5051029;28;20483;-58
2021/04/23 00:46:50;;;;;;;17.83;4.35;;;2.90;99.90;;;;;;5050973;28;20051;-57
2021/04/23 00:49:16;;;;;;;14.55;4.63;;;2.90;99.90;;;;;;5051290;28;20379;-59
2021/04/23 00:51:57;;;;;;;12.73;4.40;;;2.90;99.90;;;;;;5050865;28;20025;-58
2021/04/23 00:54:23;;;;;;;15.38;3.65;;;2.80;99.90;;;;;;5049659;28;20514;-57
2021/04/23 00:56:49;;;;;;;15.45;3.90;;;2.80;99.90;;;;;;5050656;28;20073;-56
2021/04/23 00:59:15;;;;;;;20.45;3.92;;;2.90;99.90;;;;;;5050797;28;20037;-58
2021/04/23 01:01:53;;;;;;;13.27;2.80;;;2.80;99.90;;;;;;5050922;28;20545;-56
2021/04/23 01:04:20;;;;;;;17.40;3.05;;;2.60;99.90;;;;;;5037331;28;20521;-57
2021/04/23 01:06:47;;;;;;;14.27;3.28;;;2.50;99.90;;;;;;5049715;28;20469;-58
2021/04/23 01:09:20;;;;;;;14.73;3.33;;;2.50;99.90;;;;;;5050898;28;20110;-54
2021/04/23 01:11:47;;;;;;;14.85;3.70;;;2.40;99.90;;;;;;5051304;28;20036;-57
2021/04/23 01:14:13;;;;;;;17.73;3.55;;;2.30;99.90;;;;;;5050760;28;20426;-58
2021/04/23 01:16:40;;;;;;;9.15;2.78;;;2.30;99.90;;;;;;5050889;28;20079;-57
2021/04/23 01:19:09;;;;;;;11.15;2.65;;;2.20;99.90;;;;;;5050570;28;20025;-57
2021/04/23 01:21:37;;;;;;;13.68;3.05;;;2.20;99.90;;;;;;5050843;28;20029;-55
2021/04/23 01:24:05;;;;;;;19.25;3.05;;;2.30;99.90;;;;;;5049113;28;20070;-57
2021/04/23 01:26:40;;;;;;;8.60;2.75;;;2.20;99.90;;;;;;5050614;28;20466;-55
2021/04/23 01:29:08;;;;;;;10.95;2.60;;;2.20;99.90;;;;;;5050608;28;20028;-55
2021/04/23 01:31:40;;;;;;;15.30;2.65;;;2.20;99.90;;;;;;5050830;28;20067;-59
2021/04/23 01:34:12;;;;;;;14.63;3.45;;;2.30;99.90;;;;;;5050581;28;20037;-56
2021/04/23 01:36:40;;;;;;;15.10;3.30;;;2.30;99.90;;;;;;5050662;28;20055;-58
2021/04/23 01:39:09;;;;;;;11.88;3.17;;;2.30;99.90;;;;;;5050241;28;20037;-56
2021/04/23 01:41:35;;;;;;;12.55;2.70;;;2.30;99.90;;;;;;5050549;28;20463;-55
2021/04/23 01:44:01;;;;;;;14.82;3.38;;;2.30;99.90;;;;;;5050594;28;20044;-55
2021/04/23 01:46:27;;;;;;;12.07;2.95;;;2.30;99.90;;;;;;5050326;28;20039;-60
2021/04/23 01:48:53;;;;;;;13.40;3.17;;;2.30;99.90;;;;;;5054206;28;20465;-58
2021/04/23 01:51:19;;;;;;;11.43;2.72;;;2.30;99.90;;;;;;5054083;28;20055;-57
2021/04/23 01:53:45;;;;;;;13.07;2.53;;;2.30;99.90;;;;;;5054076;28;20029;-57
2021/04/23 01:56:11;;;;;;;12.65;2.92;;;2.20;99.90;;;;;;5053885;28;20025;-55
2021/04/23 01:58:39;;;;;;;20.10;4.68;;;2.20;99.90;;;;;;5052458;28;20364;-57
2021/04/23 02:01:07;;;;;;;13.68;3.47;;;2.10;99.90;;;;;;5053855;28;20420;-60
2021/04/23 02:03:33;;;;;;;13.80;3.28;;;2.00;99.90;;;;;;5053900;28;20021;-57
2021/04/23 02:05:59;;;;;;;10.60;3.45;;;1.90;99.90;;;;;;5053800;28;20025;-58
2021/04/23 02:08:27;;;;;;;12.60;3.55;;;1.90;99.90;;;;;;5053600;28;20086;-59
2021/04/23 02:11:04;;;;;;;15.88;3.65;;;1.90;99.90;;;;;;5053783;28;20021;-55
2021/04/23 02:13:30;;;;;;;12.68;4.07;;;1.90;99.90;;;;;;5053541;28;20111;-55
2021/04/23 02:15:57;;;;;;;15.02;4.20;;;1.80;99.90;;;;;;5053535;28;20531;-58
2021/04/23 02:18:24;;;;;;;15.90;4.82;;;1.80;99.90;;;;;;5053749;28;20025;-57
2021/04/23 02:20:50;;;;;;;13.38;4.10;;;1.70;99.90;;;;;;5053360;28;20102;-59
2021/04/23 02:23:18;;;;;;;15.98;4.22;;;1.70;99.90;;;;;;5053597;28;20025;-57
2021/04/23 02:25:46;;;;;;;15.73;4.38;;;1.70;99.90;;;;;;5053174;28;20052;-57
2021/04/23 02:28:12;;;;;;;14.88;4.30;;;1.80;99.90;;;;;;5053227;28;20048;-56
2021/04/23 02:30:43;;;;;;;15.45;4.32;;;1.80;99.90;;;;;;5053159;28;20029;-56
2021/04/23 02:33:12;;;;;;;16.17;5.53;;;1.80;99.90;;;;;;5045208;28;20039;-58
2021/04/23 02:35:39;;;;;;;23.83;7.55;;;1.80;99.90;;;;;;5052815;28;20110;-57
2021/04/23 02:38:06;;;;;;;23.80;8.13;;;1.80;99.90;;;;;;5052956;28;20017;-55
2021/04/23 02:40:32;;;;;;;19.75;8.70;;;1.80;99.90;;;;;;5052850;28;20382;-56
2021/04/23 02:43:04;;;;;;;16.52;6.70;;;1.80;99.90;;;;;;5053366;28;20449;-57
2021/04/23 02:45:33;;;;;;;21.52;7.13;;;1.80;99.90;;;;;;5052862;28;20021;-56
2021/04/23 02:47:59;;;;;;;17.65;6.07;;;1.80;99.90;;;;;;5053362;28;20391;-58
2021/04/23 02:50:28;;;;;;;18.15;6.32;;;1.80;99.90;;;;;;5052814;28;20025;-57
2021/04/23 02:52:54;;;;;;;15.90;5.50;;;1.80;99.90;;;;;;5053093;28;20387;-53
2021/04/23 02:55:21;;;;;;;13.27;5.65;;;1.80;99.90;;;;;;5051262;28;20398;-54
2021/04/23 02:57:58;;;;;;;20.50;5.60;;;1.70;99.90;;;;;;5052954;28;20020;-57
2021/04/23 03:00:26;;;;;;;12.38;4.53;;;1.60;99.90;;;;;;5052157;28;20052;-57
2021/04/23 03:02:52;;;;;;;25.05;5.22;;;1.60;99.90;;;;;;5052776;28;20032;-55
2021/04/23 03:05:20;;;;;;;16.60;4.95;;;1.50;99.90;;;;;;5052768;28;20090;-58
2021/04/23 03:07:48;;;;;;;17.83;4.53;;;1.50;99.90;;;;;;5052910;28;20075;-57
2021/04/23 03:10:14;;;;;;;21.48;5.30;;;1.50;99.90;;;;;;5052542;28;20060;-56
2021/04/23 03:12:40;;;;;;;18.95;5.40;;;1.40;99.90;;;;;;5052589;28;20483;-58
2021/04/23 03:15:08;;;;;;;19.63;5.25;;;1.50;99.90;;;;;;5052701;28;20037;-57
2021/04/23 03:17:34;;;;;;;20.60;6.25;;;1.50;99.90;;;;;;5052501;28;20037;-55
2021/04/23 03:20:00;;;;;;;16.05;4.20;;;1.50;99.90;;;;;;5052645;28;20116;-57
2021/04/23 03:22:26;;;;;;;16.35;5.32;;;1.50;99.90;;;;;;5052252;28;20139;-56
2021/04/23 03:24:52;;;;;;;15.68;5.05;;;1.50;99.90;;;;;;5051347;28;20376;-54
2021/04/23 03:27:17;;;;;;;17.77;5.00;;;1.50;99.90;;;;;;5052459;28;20025;-57
2021/04/23 03:29:43;;;;;;;20.08;5.43;;;1.50;99.90;;;;;;5052121;28;20021;-56
2021/04/23 03:32:09;;;;;;;15.88;4.68;;;1.50;99.90;;;;;;5052271;28;20111;-56
2021/04/23 03:34:35;;;;;;;16.90;5.25;;;1.50;99.90;;;;;;5052053;28;20059;-55
2021/04/23 03:37:01;;;;;;;15.68;4.18;;;1.50;99.90;;;;;;5052168;28;20051;-55
2021/04/23 03:39:27;;;;;;;30.98;5.40;;;1.40;99.90;;;;;;5051422;28;20037;-57
2021/04/23 03:41:53;;;;;;;22.15;4.50;;;1.50;99.90;;;;;;5051852;28;20029;-53
2021/04/23 03:44:18;;;;;;;11.85;4.43;;;1.50;99.90;;;;;;5050840;28;20402;-57
2021/04/23 03:46:44;;;;;;;14.10;4.03;;;1.40;99.90;;;;;;5051959;28;20040;-59
2021/04/23 03:49:10;;;;;;;12.35;3.75;;;1.50;99.90;;;;;;5051889;28;20459;-55
2021/04/23 03:51:35;;;;;;;15.98;4.20;;;1.50;99.90;;;;;;5052055;28;20498;-53
2021/04/23 03:54:01;;;;;;;14.68;4.57;;;1.40;99.90;;;;;;5051740;28;20111;-58
2021/04/23 03:56:27;;;;;;;22.60;4.95;;;1.50;99.90;;;;;;5052038;28;20098;-56
2021/04/23 03:58:53;;;;;;;12.95;4.05;;;1.40;99.90;;;;;;5051609;28;20071;-56
2021/04/23 04:01:22;;;;;;;85.68;10.48;;;1.40;99.90;;;;;;5052113;28;20032;-55
2021/04/23 04:03:50;;;;;;;17.38;4.60;;;1.40;99.90;;;;;;5051814;28;20802;-58
2021/04/23 04:06:16;;;;;;;19.90;4.05;;;1.40;99.90;;;;;;5050272;28;20159;-55
2021/04/23 04:08:42;;;;;;;15.30;4.40;;;1.40;99.90;;;;;;5051108;28;20516;-56
2021/04/23 04:11:08;;;;;;;18.35;4.00;;;1.40;99.90;;;;;;5051724;28;20028;-57
2021/04/23 04:13:35;;;;;;;18.65;4.25;;;1.40;99.90;;;;;;5051412;28;20037;-56
2021/04/23 04:16:02;;;;;;;16.80;3.92;;;1.40;99.90;;;;;;5051563;28;20021;-57
2021/04/23 04:18:28;;;;;;;14.13;4.45;;;1.30;99.90;;;;;;5050286;28;20068;-54
2021/04/23 04:20:54;;;;;;;16.83;4.22;;;1.20;99.90;;;;;;5051276;28;20069;-54
2021/04/23 04:23:21;;;;;;;22.75;5.13;;;1.20;99.90;;;;;;5051418;28;20064;-57
2021/04/23 04:25:51;;;;;;;13.23;3.78;;;1.10;99.90;;;;;;5050948;28;20068;-56
2021/04/23 04:28:17;;;;;;;16.85;4.28;;;1.10;99.90;;;;;;5051258;28;20036;-55
2021/04/23 04:30:44;;;;;;;15.90;4.03;;;1.10;99.90;;;;;;5049807;28;20413;-55
2021/04/23 04:33:10;;;;;;;13.57;4.38;;;1.00;99.90;;;;;;5051108;28;20486;-56
2021/04/23 04:35:37;;;;;;;16.63;4.30;;;1.00;99.90;;;;;;5051106;28;20069;-58
2021/04/23 04:38:06;;;;;;;16.58;4.40;;;0.90;99.90;;;;;;5050959;28;20021;-56
2021/04/23 04:40:33;;;;;;;18.40;4.35;;;1.00;99.90;;;;;;5050591;28;20025;-56
2021/04/23 04:42:59;;;;;;;20.52;4.63;;;0.90;99.90;;;;;;5050334;28;20033;-58
2021/04/23 04:45:27;;;;;;;18.30;4.07;;;0.90;99.90;;;;;;5049655;28;20051;-55
2021/04/23 04:47:54;;;;;;;21.77;4.40;;;1.00;99.90;;;;;;5049652;28;20120;-56
2021/04/23 04:50:27;;;;;;;23.05;4.68;;;1.00;99.90;;;;;;5050914;28;20037;-55
2021/04/23 04:52:54;;;;;;;16.42;4.93;;;1.00;99.90;;;;;;5050839;28;20060;-56
2021/04/23 04:55:24;;;;;;;21.00;4.53;;;0.90;99.90;;;;;;5050703;28;20037;-58
2021/04/23 04:57:50;;;;;;;14.90;4.10;;;0.90;99.90;;;;;;5049557;28;20450;-55
2021/04/23 05:00:16;;;;;;;18.33;4.78;;;0.90;99.90;;;;;;5050958;28;20037;-57
2021/04/23 05:02:42;;;;;;;17.35;4.18;;;1.00;99.90;;;;;;5051183;28;20040;-52
2021/04/23 05:05:08;;;;;;;13.82;4.57;;;1.20;99.90;;;;;;5050843;28;20702;-56
2021/04/23 05:07:34;;;;;;;10.60;3.92;;;1.10;99.90;;;;;;5050965;28;20457;-56
2021/04/23 05:10:01;;;;;;;13.68;3.88;;;1.00;99.90;;;;;;5050744;28;20045;-55
2021/04/23 05:12:27;;;;;;;12.38;4.38;;;1.00;99.90;;;;;;5050635;28;20021;-56
2021/04/23 05:14:52;;;;;;;19.08;4.28;;;0.90;99.90;;;;;;5050643;28;20463;-58
2021/04/23 05:17:18;;;;;;;14.57;4.20;;;0.90;99.90;;;;;;5050500;28;20025;-56
2021/04/23 05:19:44;;;;;;;22.00;5.00;;;0.90;99.90;;;;;;5050627;28;20036;-59
2021/04/23 05:22:10;;;;;;;14.93;3.55;;;0.80;99.90;;;;;;5052181;28;20033;-56
2021/04/23 05:24:35;;;;;;;17.73;3.92;;;0.80;99.90;;;;;;5053716;28;20049;-54
2021/04/23 05:27:01;;;;;;;21.73;4.45;;;0.70;99.90;;;;;;5054676;28;20553;-57
2021/04/23 05:29:27;;;;;;;23.40;4.20;;;0.70;99.90;;;;;;5054608;28;20486;-56
2021/04/23 05:31:52;;;;;;;19.13;4.00;;;0.60;99.90;;;;;;5054513;28;20064;-58
2021/04/23 05:34:18;;;;;;;19.55;3.67;;;0.60;99.90;;;;;;5054352;28;20391;-54
2021/04/23 05:36:46;;;;;;;23.15;3.90;;;0.50;99.90;;;;;;5054262;28;20032;-56
2021/04/23 05:39:12;;;;;;;24.67;3.70;;;0.50;99.90;;;;;;5048729;28;20439;-52
2021/04/23 05:41:39;;;;;;;18.77;3.67;;;0.60;99.90;;;;;;5054237;28;20036;-54
2021/04/23 05:44:07;;;;;;;20.42;3.67;;;0.60;99.90;;;;;;5054356;28;20033;-55
2021/04/23 05:46:33;;;;;;;24.80;5.03;;;0.70;99.90;;;;;;5053939;28;20057;-52
2021/04/23 05:48:59;;;;;;;28.15;4.80;;;0.70;99.90;;;;;;5054204;28;20122;-57
2021/04/23 05:51:25;;;;;;;20.05;5.22;;;0.80;99.90;;;;;;5054233;28;20047;-54
2021/04/23 05:53:50;;;;;;;28.05;5.53;;;1.00;99.90;;;;;;5053427;28;20029;-59
2021/04/23 05:56:16;;;;;;;37.17;5.25;;;1.20;99.90;;;;;;5054133;28;20406;-57
2021/04/23 05:58:42;;;;;;;26.70;4.95;;;1.30;99.90;;;;;;5053967;28;20158;-58
2021/04/23 06:01:07;;;;;;;27.17;5.60;;;1.40;99.90;;;;;;5053887;28;20071;-56
2021/04/23 06:03:33;;;;;;;28.23;5.28;;;1.60;99.90;;;;;;5054017;28;20021;-57
2021/04/23 06:05:59;;;;;;;34.97;5.82;;;1.70;99.90;;;;;;5053858;28;20037;-57
2021/04/23 06:08:25;;;;;;;17.73;4.32;;;1.70;99.90;;;;;;5053742;28;20036;-54
2021/04/23 06:10:51;;;;;;;29.60;5.28;;;1.80;99.90;;;;;;5053389;28;20029;-56
2021/04/23 06:13:17;;;;;;;25.25;4.70;;;1.90;99.90;;;;;;5054065;28;20383;-58
2021/04/23 06:15:44;;;;;;;35.08;5.78;;;2.00;99.90;;;;;;5053627;28;20449;-57
2021/04/23 06:18:13;;;;;;;35.15;5.57;;;2.10;99.90;;;;;;5053472;28;20425;-57
2021/04/23 06:20:41;;;;;;;30.25;5.88;;;2.30;99.90;;;;;;5052379;28;20044;-58
2021/04/23 06:23:07;;;;;;;31.35;6.05;;;2.50;99.90;;;;;;5052845;28;20037;-55
2021/04/23 06:25:33;;;;;;;38.67;6.07;;;2.70;99.90;;;;;;5053046;28;20460;-56
2021/04/23 06:28:01;;;;;;;29.27;5.53;;;2.70;99.90;;;;;;5053458;28;20029;-56
2021/04/23 06:30:30;;;;;;;33.85;5.82;;;2.80;99.90;;;;;;5052245;28;20029;-56
2021/04/23 06:32:58;;;;;;;24.73;5.55;;;2.90;99.90;;;;;;5052582;28;20067;-58
2021/04/23 06:35:25;;;;;;;18.73;4.80;;;3.10;99.90;;;;;;5052965;28;20037;-57
2021/04/23 06:37:52;;;;;;;23.80;6.68;;;3.40;99.90;;;;;;5053114;28;20398;-57
2021/04/23 06:40:18;;;;;;;26.30;5.72;;;3.70;99.90;;;;;;5052603;28;20534;-57
2021/04/23 06:42:45;;;;;;;28.17;6.15;;;4.10;99.90;;;;;;5053223;28;20368;-55
2021/04/23 06:45:14;;;;;;;37.45;11.18;;;4.20;99.90;;;;;;5053177;28;20039;-56
2021/04/23 06:47:41;;;;;;;19.52;6.55;;;4.50;99.90;;;;;;5053384;28;20029;-57
2021/04/23 06:50:10;;;;;;;29.30;6.68;;;4.90;99.90;;;;;;5053008;28;20024;-55
2021/04/23 06:52:37;;;;;;;25.80;7.47;;;5.10;99.90;;;;;;5053022;28;20039;-58
2021/04/23 06:55:03;;;;;;;31.30;8.38;;;5.40;99.90;;;;;;5051916;28;20104;-57
2021/04/23 06:57:29;;;;;;;27.95;7.22;;;5.80;99.90;;;;;;5052803;28;20222;-60
2021/04/23 06:59:55;;;;;;;22.52;6.90;;;6.20;99.90;;;;;;5051445;28;20534;-53
2021/04/23 07:02:20;;;;;;;23.33;6.40;;;6.50;99.90;;;;;;5052548;28;20104;-59
2021/04/23 07:04:46;;;;;;;30.20;6.72;;;6.60;99.90;;;;;;5052461;28;20437;-56
2021/04/23 07:07:12;;;;;;;27.80;7.38;;;6.70;99.90;;;;;;5052371;28;20071;-57
2021/04/23 07:09:38;;;;;;;23.30;6.97;;;6.70;99.90;;;;;;5052275;28;20064;-54
2021/04/23 07:12:04;;;;;;;26.85;6.95;;;6.80;99.90;;;;;;5052324;28;20021;-54
2021/04/23 07:14:29;;;;;;;25.42;6.57;;;6.90;99.90;;;;;;5052619;28;20039;-56
2021/04/23 07:16:55;;;;;;;23.35;6.50;;;7.10;99.90;;;;;;5052700;28;20021;-54
2021/04/23 07:19:21;;;;;;;25.38;7.43;;;7.20;99.90;;;;;;5052176;28;20037;-54
2021/04/23 07:21:47;;;;;;;24.80;6.55;;;7.30;99.90;;;;;;5052292;28;20475;-60
2021/04/23 07:24:13;;;;;;;20.65;6.55;;;7.50;99.90;;;;;;5050744;28;20082;-58
2021/04/23 07:26:38;;;;;;;26.08;7.35;;;7.60;99.90;;;;;;5052144;28;20025;-56
2021/04/23 07:29:04;;;;;;;27.95;6.20;;;7.80;99.90;;;;;;5050701;28;20033;-59
2021/04/23 07:31:30;;;;;;;30.75;7.50;;;8.00;99.90;;;;;;5051918;28;20467;-56
2021/04/23 07:33:57;;;;;;;27.17;6.70;;;8.30;99.90;;;;;;5052216;28;20032;-53
2021/04/23 07:36:23;;;;;;;34.75;6.72;;;8.70;99.90;;;;;;5052095;28;20025;-56
2021/04/23 07:38:49;;;;;;;31.45;7.25;;;9.10;99.90;;;;;;5051951;28;20122;-56
2021/04/23 07:41:14;;;;;;;53.92;8.15;;;9.50;99.90;;;;;;5052034;28;20070;-56
2021/04/23 07:43:40;;;;;;;24.58;6.15;;;10.00;99.90;;;;;;5037956;28;20035;-57
2021/04/23 07:46:06;;;;;;;46.72;7.85;;;10.40;99.90;;;;;;5051720;28;20028;-57
2021/04/23 07:48:33;;;;;;;31.55;5.75;;;10.70;99.90;;;;;;5051512;28;20025;-58
2021/04/23 07:50:58;;;;;;;65.28;7.60;;;10.90;99.90;;;;;;5051942;28;20040;-57
2021/04/23 07:53:25;;;;;;;49.85;6.18;;;10.90;99.90;;;;;;5051703;28;20033;-52
2021/04/23 07:55:50;;;;;;;17.98;5.03;;;11.10;99.90;;;;;;5039644;28;20490;-54
2021/04/23 07:58:16;;;;;;;48.25;8.35;;;11.30;99.90;;;;;;5051295;28;20036;-59
2021/04/23 08:00:42;;;;;;;31.45;5.03;;;11.60;99.90;;;;;;5051588;28;20029;-56
2021/04/23 08:03:08;;;;;;;30.55;6.00;;;11.80;99.90;;;;;;5051901;28;20033;-59
2021/04/23 08:05:34;;;;;;;23.38;5.70;;;11.90;99.90;;;;;;5051178;28;20139;-57
2021/04/23 08:08:01;;;;;;;54.65;7.75;;;12.10;99.90;;;;;;5051687;28;20040;-57
2021/04/23 08:10:27;;;;;;;38.13;5.95;;;12.30;99.90;;;;;;5051267;28;20079;-58
2021/04/23 08:12:53;;;;;;;24.50;5.53;;;12.60;99.90;;;;;;5051478;28;20033;-57
2021/04/23 08:15:21;;;;;;;57.38;7.30;;;12.60;99.90;;;;;;5051345;28;20063;-60
2021/04/23 08:17:47;;;;;;;22.80;4.47;;;12.80;99.90;;;;;;5051341;28;20017;-58
2021/04/23 08:20:14;;;;;;;30.33;5.65;;;13.30;99.90;;;;;;5051160;28;20124;-56
2021/04/23 08:22:39;;;;;;;47.20;6.32;;;13.50;99.90;;;;;;5050954;28;20031;-57
2021/04/23 08:25:08;;;;;;;19.35;4.53;;;13.60;99.90;;;;;;5050927;28;20132;-57
2021/04/23 08:27:34;;;;;;;32.85;5.85;;;13.40;99.90;;;;;;5050879;28;20032;-58
2021/04/23 08:30:00;;;;;;;29.08;5.00;;;13.50;99.90;;;;;;5050610;28;20395;-54
2021/04/23 08:32:26;;;;;;;16.40;4.55;;;13.60;99.90;;;;;;5051045;28;20033;-58
2021/04/23 08:34:52;;;;;;;26.50;5.22;;;13.70;99.90;;;;;;5050981;28;20040;-54
2021/04/23 08:37:18;;;;;;;82.72;9.38;;;13.90;99.90;;;;;;5051039;28;20033;-56
2021/04/23 08:39:44;;;;;;;24.42;5.03;;;14.00;99.90;;;;;;5050152;28;20067;-58
2021/04/23 08:42:09;;;;;;;19.10;4.28;;;14.40;99.90;;;;;;5050807;28;20041;-53
2021/04/23 08:44:36;;;;;;;20.45;3.92;;;14.40;99.90;;;;;;5051344;28;20486;-55
2021/04/23 08:47:02;;;;;;;12.95;3.33;;;14.50;99.90;;;;;;5050959;28;20029;-58
2021/04/23 08:49:28;;;;;;;19.92;4.30;;;14.40;99.90;;;;;;5050962;28;20390;-58
2021/04/23 08:51:53;;;;;;;14.18;3.45;;;14.20;99.90;;;;;;5050666;28;20028;-55
2021/04/23 08:54:21;;;;;;;32.90;5.13;;;14.30;99.90;;;;;;5050755;28;20025;-57
2021/04/23 08:56:50;;;;;;;24.58;4.28;;;14.50;99.90;;;;;;5049825;28;20116;-55
2021/04/23 08:59:16;;;;;;;17.15;3.10;;;14.30;99.90;;;;;;5050287;28;20044;-56
2021/04/23 09:01:42;;;;;;;18.30;3.80;;;14.50;99.90;;;;;;5050761;28;20421;-57
2021/04/23 09:04:08;;;;;;;54.53;6.10;;;14.40;99.90;;;;;;5050850;28;20435;-54
2021/04/23 09:06:33;;;;;;;82.85;11.73;;;14.70;99.90;;;;;;5050843;28;20186;-57
2021/04/23 09:09:02;;;;;;;14.30;3.83;;;15.00;99.90;;;;;;5050943;28;20387;-57
2021/04/23 09:11:39;;;;;;;18.42;3.67;;;15.20;99.90;;;;;;5050664;28;20032;-56
2021/04/23 09:14:14;;;;;;;16.55;3.80;;;15.30;99.90;;;;;;5050477;28;20032;-56
2021/04/23 09:16:58;;;;;;;16.77;3.90;;;15.50;99.90;;;;;;5051012;28;20057;-57
2021/04/23 09:19:25;;;;;;;19.98;4.43;;;15.30;99.90;;;;;;5050662;28;20073;-55
2021/04/23 09:21:57;;;;;;;22.23;4.28;;;15.40;99.90;;;;;;5050632;28;20054;-54
2021/04/23 09:24:31;;;;;;;17.75;3.95;;;15.20;99.90;;;;;;5050426;28;20394;-58
2021/04/23 09:26:59;;;;;;;11.60;3.53;;;15.10;99.90;;;;;;5050464;28;20033;-56
2021/04/23 09:29:28;;;;;;;13.13;3.72;;;15.30;99.90;;;;;;5050377;28;20029;-58
2021/04/23 09:31:55;;;;;;;17.88;4.20;;;15.30;99.90;;;;;;5050367;28;20037;-57
2021/04/23 09:34:22;;;;;;;12.32;3.75;;;15.40;99.90;;;;;;5050682;28;20467;-55
2021/04/23 09:36:49;;;;;;;18.35;3.88;;;15.40;99.90;;;;;;5050370;28;20348;-56
2021/04/23 09:39:16;;;;;;;15.95;4.07;;;15.60;99.90;;;;;;5050160;28;20037;-58
2021/04/23 09:41:57;;;;;;;24.05;5.38;;;15.50;99.80;;;;;;5050034;28;20067;-56
2021/04/23 09:44:43;;;;;;;13.70;3.08;;;15.70;99.60;;;;;;5050352;28;20410;-57
2021/04/23 09:47:21;;;;;;;11.82;3.22;;;15.30;98.80;;;;;;5036922;28;20032;-56
2021/04/23 09:49:50;;;;;;;12.77;2.75;;;14.90;99.30;;;;;;5050504;28;20036;-56
2021/04/23 09:52:16;;;;;;;13.05;3.78;;;14.60;99.50;;;;;;5050549;28;20041;-57
2021/04/23 09:54:59;;;;;;;11.15;3.17;;;14.60;99.60;;;;;;5050143;28;20371;-57
2021/04/23 09:57:30;;;;;;;13.30;3.30;;;14.90;99.40;;;;;;5049149;28;20029;-55
2021/04/23 09:59:59;;;;;;;24.88;3.97;;;15.00;99.40;;;;;;5049111;28;20036;-56
2021/04/23 10:02:27;;;;;;;11.40;3.10;;;15.30;99.20;;;;;;5050679;28;20463;-56
2021/04/23 10:04:53;;;;;;;12.88;3.08;;;15.10;99.40;;;;;;5050020;28;20029;-59
2021/04/23 10:07:27;;;;;;;16.77;3.50;;;15.40;99.10;;;;;;5050346;28;20482;-57
2021/04/23 10:10:00;;;;;;;26.92;4.40;;;15.60;99.10;;;;;;5053571;28;20032;-57
2021/04/23 10:12:53;;;;;;;11.60;3.10;;;15.70;98.70;;;;;;5053583;28;20470;-58
2021/04/23 10:15:33;;;;;;;10.63;3.10;;;15.40;99.00;;;;;;5053790;28;20033;-55
2021/04/23 10:18:02;;;;;;;12.45;3.42;;;15.50;98.70;;;;;;5053729;28;20020;-53
2021/04/23 10:20:34;;;;;;;12.00;2.75;;;15.60;98.10;;;;;;5053643;28;20041;-58
2021/04/23 10:23:04;;;;;;;24.63;4.00;;;15.80;97.70;;;;;;5053605;28;20515;-55
2021/04/23 10:25:30;;;;;;;16.13;2.90;;;15.80;96.60;;;;;;5052862;28;20107;-57
2021/04/23 10:27:57;;;;;;;12.95;2.40;;;15.80;96.70;;;;;;5053594;28;20025;-58
2021/04/23 10:30:26;;;;;;;9.88;3.22;;;16.00;95.30;;;;;;5053492;28;20033;-58
2021/04/23 10:32:55;;;;;;;17.10;2.95;;;15.90;96.20;;;;;;5052952;28;20036;-56
2021/04/23 10:35:23;;;;;;;8.90;2.70;;;15.90;96.00;;;;;;5053220;28;20056;-59
2021/04/23 10:37:50;;;;;;;9.40;2.65;;;15.90;95.90;;;;;;5053381;28;20017;-56
2021/04/23 10:40:18;;;;;;;12.65;2.60;;;16.10;96.40;;;;;;5052746;28;20112;-58
2021/04/23 10:42:57;;;;;;;17.60;3.67;;;16.20;94.40;;;;;;5051818;28;20506;-59
2021/04/23 10:45:50;;;;;;;12.02;3.17;;;16.00;94.40;;;;;;5053297;28;20115;-57
2021/04/23 10:48:16;;;;;;;19.63;3.60;;;15.90;95.00;;;;;;5052222;28;20356;-57
2021/04/23 10:50:47;;;;;;;10.82;2.75;;;15.80;95.30;;;;;;5058807;28;20088;-57
2021/04/23 10:53:16;;;;;;;11.13;2.85;;;15.80;94.80;;;;;;5046143;28;20029;-55
2021/04/23 10:55:45;;;;;;;17.83;3.35;;;15.80;95.30;;;;;;5051459;28;20101;-58
2021/04/23 10:58:18;;;;;;;14.05;3.72;;;15.50;95.60;;;;;;5052454;28;20052;-56
2021/04/23 11:00:49;;;;;;;8.05;2.90;;;15.80;94.60;;;;;;5046323;28;20460;-55
2021/04/23 11:03:21;;;;;;;13.70;3.53;;;15.70;95.60;;;;;;5052701;28;20123;-57
2021/04/23 11:05:48;;;;;;;13.15;2.88;;;15.80;94.30;;;;;;5050031;28;20028;-55
2021/04/23 11:08:14;;;;;;;19.77;3.85;;;15.70;94.80;;;;;;5056364;28;20029;-58
2021/04/23 11:11:02;;;;;;;18.88;4.03;;;16.00;94.80;;;;;;5051170;28;20037;-55
2021/04/23 11:13:35;;;;;;;12.25;2.80;;;16.00;93.60;;;;;;5051835;28;20068;-54
2021/04/23 11:18:52;;;;;;;7.20;2.30;;;16.10;93.80;;;;;;5046722;28;20437;-57
2021/04/23 11:21:27;;;;;;;18.77;3.75;;;16.00;94.50;;;;;;5051649;28;20082;-58
2021/04/23 11:24:12;;;;;;;;;;;16.40;94.40;;;;;;5046939;28;20044;-57
2021/04/23 11:26:58;;;;;;;9.73;2.67;;;16.50;94.00;;;;;;5052346;28;19958;-59
2021/04/23 11:29:53;;;;;;;8.95;3.22;;;16.20;94.70;;;;;;5052018;28;20025;-57
2021/04/23 11:32:28;;;;;;;19.73;3.88;;;16.40;94.90;;;;;;5051897;28;20029;-57
2021/04/23 11:35:18;;;;;;;16.48;3.13;;;16.50;95.00;;;;;;5052070;28;20037;-58
2021/04/23 11:37:43;;;;;;;15.90;3.50;;;16.50;94.70;;;;;;5051976;28;20025;-59
2021/04/23 11:40:26;;;;;;;14.23;3.40;;;16.40;94.70;;;;;;5051714;28;20045;-58
2021/04/23 11:43:04;;;;;;;10.98;2.85;;;16.60;94.90;;;;;;5051843;28;20124;-57
2021/04/23 11:45:33;;;;;;;10.40;3.17;;;16.60;94.50;;;;;;5052005;28;20033;-57
2021/04/23 11:48:05;;;;;;;13.68;3.08;;;16.40;95.00;;;;;;5051909;28;20033;-58
2021/04/23 11:50:33;;;;;;;11.25;2.85;;;16.50;94.90;;;;;;5038157;28;20033;-55
2021/04/23 11:53:08;;;;;;;9.18;3.10;;;16.50;95.20;;;;;;5052102;28;20055;-57
2021/04/23 11:55:36;;;;;;;15.85;3.17;;;16.60;95.50;;;;;;5051400;28;20040;-55
2021/04/23 11:58:15;;;;;;;17.08;4.35;;;16.50;94.70;;;;;;5051702;28;20029;-55
2021/04/23 12:00:46;;;;;;;9.10;3.30;;;16.60;95.10;;;;;;5051476;28;20040;-58
2021/04/23 12:03:16;;;;;;;19.17;4.05;;;16.40;94.70;;;;;;5051597;28;20541;-57
2021/04/23 12:05:47;;;;;;;10.50;3.10;;;16.10;95.20;;;;;;5051192;28;20548;-56
2021/04/23 12:08:27;;;;;;;15.30;4.00;;;16.30;95.30;;;;;;5051560;28;20025;-58
2021/04/23 12:11:00;;;;;;;13.80;4.10;;;16.30;95.40;;;;;;5051308;28;20028;-55
2021/04/23 12:13:47;;;;;;;11.82;3.67;;;16.20;95.50;;;;;;5051405;28;20451;-56
2021/04/23 12:16:14;;;;;;;16.58;3.40;;;16.10;95.80;;;;;;5050683;28;20449;-57
2021/04/23 12:18:42;;;;;;;15.48;3.10;;;16.10;95.60;;;;;;5051295;28;20033;-60
2021/04/23 12:21:10;;;;;;;15.82;4.32;;;16.10;95.70;;;;;;5051220;28;20106;-55
2021/04/23 12:23:36;;;;;;;11.95;3.33;;;16.20;94.80;;;;;;5051327;28;20036;-57
2021/04/23 12:26:07;;;;;;;11.20;3.50;;;16.30;94.70;;;;;;5050005;28;20041;-57
2021/04/23 12:28:41;;;;;;;11.13;2.90;;;16.10;94.80;;;;;;5050999;28;20036;-58
2021/04/23 12:31:24;;;;;;;12.82;3.22;;;15.90;95.20;;;;;;5050363;28;20083;-58
2021/04/23 12:33:57;;;;;;;13.07;3.83;;;15.90;95.70;;;;;;5051199;28;20048;-57
2021/04/23 12:36:27;;;;;;;12.52;4.00;;;15.70;95.50;;;;;;5050697;28;20108;-55
2021/04/23 12:39:05;;;;;;;18.00;3.50;;;15.60;96.20;;;;;;5050832;28;20040;-52
2021/04/23 12:41:35;;;;;;;12.82;3.42;;;15.80;95.90;;;;;;5050451;28;20044;-55
2021/04/23 12:44:06;;;;;;;12.70;3.50;;;16.10;95.20;;;;;;5050992;28;20502;-57
2021/04/23 12:46:35;;;;;;;11.70;2.97;;;16.30;95.20;;;;;;5050450;28;20040;-51
2021/04/23 12:49:07;;;;;;;12.65;3.22;;;15.90;94.60;;;;;;5051036;28;20502;-53
2021/04/23 12:51:55;;;;;;;18.17;4.38;;;15.80;95.10;;;;;;5050888;28;20043;-58
2021/04/23 12:54:32;;;;;;;14.40;3.22;;;16.00;95.40;;;;;;5051067;28;20510;-55
2021/04/23 12:57:01;;;;;;;12.13;3.40;;;16.00;95.20;;;;;;5050452;28;20028;-58